Time;durP1;ratioP1;P1;durP2;ratioP2;P2;SDS_P1;SDS_P2;PMS_P1;PMS_P2;Temp;Humidity;BMP_temperature;BMP_pressure;BME280_temperature;BME280_humidity;BME280_pressure;Samples;Min_cycle;Max_cycle;Signal;HPM_P1;HPM_P2
2021/03/12 00:00:47;;;;;;;4.53;1.10;;;7.90;78.50;;;;;;5003940;28;20513;-66
2021/03/12 00:03:14;;;;;;;3.55;0.98;;;7.80;78.50;;;;;;5011229;28;20524;-66
2021/03/12 00:06:01;;;;;;;4.05;1.25;;;7.80;78.40;;;;;;5012506;28;20046;-66
2021/03/12 00:08:42;;;;;;;2.80;1.27;;;7.80;78.40;;;;;;4997281;28;20036;-66
2021/03/12 00:11:08;;;;;;;2.15;1.10;;;7.80;78.30;;;;;;4994042;28;20030;-66
2021/03/12 00:13:35;;;;;;;6.88;1.10;;;7.80;78.10;;;;;;5011540;28;20676;-66
2021/03/12 00:16:02;;;;;;;3.58;1.48;;;7.80;78.00;;;;;;5006211;28;20411;-66
2021/03/12 00:18:34;;;;;;;2.50;0.70;;;7.80;78.00;;;;;;5000376;28;20022;-66
2021/03/12 00:21:00;;;;;;;5.10;1.20;;;7.70;77.80;;;;;;5003680;28;20037;-66
2021/03/12 00:23:26;;;;;;;3.10;0.85;;;7.70;77.80;;;;;;5000259;28;20120;-66
2021/03/12 00:25:51;;;;;;;4.18;1.00;;;7.70;77.80;;;;;;5001192;28;20475;-66
2021/03/12 00:28:18;;;;;;;3.65;1.00;;;7.70;77.60;;;;;;5001119;28;20054;-66
2021/03/12 00:30:45;;;;;;;5.00;1.15;;;7.70;77.40;;;;;;5010538;28;20030;-66
2021/03/12 00:33:12;;;;;;;3.10;0.60;;;7.70;77.50;;;;;;5004242;28;20026;-66
2021/03/12 00:35:42;;;;;;;3.72;0.88;;;7.70;77.20;;;;;;5006761;28;20026;-66
2021/03/12 00:38:08;;;;;;;6.38;1.02;;;7.70;77.40;;;;;;5011446;28;20057;-66
2021/03/12 00:40:52;;;;;;;2.78;0.70;;;7.70;76.40;;;;;;5011345;28;20426;-66
2021/03/12 00:43:19;;;;;;;4.75;0.70;;;7.70;76.30;;;;;;5002132;28;20026;-66
2021/03/12 00:45:48;;;;;;;4.75;1.20;;;7.70;75.90;;;;;;5000927;28;20022;-66
2021/03/12 00:48:14;;;;;;;4.97;1.02;;;7.80;75.80;;;;;;5011663;28;20040;-66
2021/03/12 00:50:41;;;;;;;3.03;0.70;;;7.80;75.70;;;;;;5009867;28;20034;-66
2021/03/12 00:53:07;;;;;;;4.35;0.90;;;7.80;75.60;;;;;;5011898;28;20492;-66
2021/03/12 00:55:34;;;;;;;6.22;1.30;;;7.80;75.60;;;;;;5010482;28;20030;-66
2021/03/12 00:57:59;;;;;;;2.40;0.80;;;7.80;75.30;;;;;;5011731;28;20032;-66
2021/03/12 01:00:29;;;;;;;3.00;0.70;;;7.80;75.40;;;;;;4999949;28;20041;-66
2021/03/12 01:02:55;;;;;;;5.20;0.95;;;7.80;75.20;;;;;;5000282;28;20018;-66
2021/03/12 01:05:22;;;;;;;4.10;1.15;;;7.80;75.00;;;;;;4996976;28;20434;-66
2021/03/12 01:07:47;;;;;;;6.72;1.00;;;7.80;74.80;;;;;;5012302;28;20622;-65
2021/03/12 01:10:15;;;;;;;2.53;0.88;;;7.80;74.40;;;;;;5007610;28;20056;-66
2021/03/12 01:12:41;;;;;;;3.45;1.10;;;7.80;74.60;;;;;;5011133;28;20117;-66
2021/03/12 01:15:12;;;;;;;4.32;1.15;;;7.80;75.00;;;;;;5000182;28;20101;-66
2021/03/12 01:17:38;;;;;;;4.57;1.20;;;7.60;75.50;;;;;;5007888;28;20406;-66
2021/03/12 01:20:10;;;;;;;1.70;0.60;;;7.40;75.90;;;;;;5011422;28;20033;-66
2021/03/12 01:22:36;;;;;;;4.38;0.60;;;7.10;76.40;;;;;;5004774;28;20049;-66
2021/03/12 01:25:08;;;;;;;5.60;0.63;;;6.90;76.60;;;;;;5004259;28;20034;-66
2021/03/12 01:27:38;;;;;;;1.42;0.85;;;6.70;76.90;;;;;;4993864;28;20026;-66
2021/03/12 01:30:16;;;;;;;0.88;0.60;;;6.70;77.30;;;;;;5008031;28;20394;-66
2021/03/12 01:32:42;;;;;;;1.45;0.63;;;6.60;77.50;;;;;;5021365;28;20467;-66
2021/03/12 01:35:09;;;;;;;1.85;0.70;;;6.50;77.50;;;;;;5001457;28;20033;-66
2021/03/12 01:37:34;;;;;;;2.72;0.65;;;6.40;77.60;;;;;;5010606;28;20033;-66
2021/03/12 01:40:00;;;;;;;2.20;0.45;;;6.30;78.00;;;;;;5010215;28;20026;-66
2021/03/12 01:42:26;;;;;;;1.50;0.52;;;6.30;78.10;;;;;;5011136;28;20042;-66
2021/03/12 01:44:52;;;;;;;1.90;0.70;;;6.20;78.50;;;;;;5008900;28;20033;-66
2021/03/12 01:47:18;;;;;;;1.95;0.80;;;6.10;78.80;;;;;;5010712;28;20040;-66
2021/03/12 01:49:43;;;;;;;0.40;0.40;;;6.00;78.90;;;;;;5009147;28;20121;-66
2021/03/12 01:52:09;;;;;;;2.75;0.60;;;5.90;79.10;;;;;;5010643;28;20030;-66
2021/03/12 01:54:35;;;;;;;1.92;0.52;;;5.90;79.40;;;;;;5007105;28;20026;-65
2021/03/12 01:57:03;;;;;;;1.00;0.57;;;5.90;79.40;;;;;;5010512;28;20045;-65
2021/03/12 01:59:29;;;;;;;1.58;0.57;;;5.90;79.70;;;;;;5009580;28;20052;-65
2021/03/12 02:01:55;;;;;;;1.85;0.80;;;5.90;79.70;;;;;;5010513;28;20025;-65
2021/03/12 02:04:21;;;;;;;1.95;1.02;;;5.80;80.00;;;;;;5009314;28;20034;-65
2021/03/12 02:06:47;;;;;;;2.05;1.00;;;5.80;79.90;;;;;;5009457;28;20033;-65
2021/03/12 02:09:13;;;;;;;1.27;0.60;;;5.80;80.40;;;;;;4993463;28;20068;-65
2021/03/12 02:11:41;;;;;;;2.75;0.70;;;5.70;80.30;;;;;;5008212;28;20391;-65
2021/03/12 02:14:34;;;;;;;1.10;0.65;;;5.70;80.40;;;;;;4999145;28;20133;-65
2021/03/12 02:17:08;;;;;;;4.47;1.00;;;5.70;80.60;;;;;;5007880;28;20018;-65
2021/03/12 02:19:52;;;;;;;2.97;0.70;;;5.70;80.80;;;;;;4993807;28;20030;-65
2021/03/12 02:22:21;;;;;;;1.75;0.77;;;5.70;80.80;;;;;;4998665;28;20407;-65
2021/03/12 02:24:53;;;;;;;3.08;0.80;;;5.70;80.90;;;;;;5010203;28;20474;-65
2021/03/12 02:27:20;;;;;;;2.13;0.77;;;5.70;81.10;;;;;;5012896;28;20068;-65
2021/03/12 02:29:51;;;;;;;2.47;0.77;;;5.70;81.00;;;;;;4998377;28;20045;-65
2021/03/12 02:32:18;;;;;;;1.67;1.00;;;5.70;81.20;;;;;;5004010;28;20430;-65
2021/03/12 02:34:46;;;;;;;3.70;0.90;;;5.70;81.20;;;;;;5013015;28;20071;-65
2021/03/12 02:37:15;;;;;;;1.55;0.90;;;5.70;81.20;;;;;;5014165;28;20033;-65
2021/03/12 02:39:54;;;;;;;2.13;1.10;;;5.70;81.10;;;;;;5014406;28;20022;-65
2021/03/12 02:42:20;;;;;;;5.05;1.13;;;5.70;81.20;;;;;;5005702;28;20045;-65
2021/03/12 02:44:48;;;;;;;3.88;1.20;;;5.70;81.00;;;;;;5013397;28;20029;-65
2021/03/12 02:47:23;;;;;;;2.83;0.85;;;5.70;81.10;;;;;;5013218;28;20052;-65
2021/03/12 02:49:50;;;;;;;2.83;0.93;;;5.70;81.10;;;;;;5013526;28;20040;-65
2021/03/12 02:52:18;;;;;;;2.55;1.10;;;5.70;80.90;;;;;;5013544;28;20041;-65
2021/03/12 02:54:44;;;;;;;5.38;1.10;;;5.70;80.90;;;;;;5013137;28;20036;-65
2021/03/12 02:57:17;;;;;;;2.90;0.88;;;5.70;80.80;;;;;;5012240;28;20018;-65
2021/03/12 02:59:43;;;;;;;;;;;5.70;80.70;;;;;;5012696;28;20045;-65
2021/03/12 03:02:10;;;;;;;2.97;1.00;;;5.70;80.50;;;;;;5013704;28;19996;-65
2021/03/12 03:04:38;;;;;;;4.53;1.35;;;5.70;80.30;;;;;;5007038;28;20030;-65
2021/03/12 03:07:09;;;;;;;5.03;1.10;;;5.70;80.30;;;;;;5013076;28;20549;-65
2021/03/12 03:09:39;;;;;;;5.55;1.58;;;5.70;80.20;;;;;;5007467;28;20029;-65
2021/03/12 03:12:07;;;;;;;4.30;1.00;;;5.70;80.20;;;;;;5013330;28;20120;-65
2021/03/12 03:14:33;;;;;;;4.97;1.00;;;5.70;80.10;;;;;;5003905;28;20026;-65
2021/03/12 03:17:01;;;;;;;3.83;0.80;;;5.70;80.10;;;;;;4994028;28;20375;-65
2021/03/12 03:19:30;;;;;;;1.52;0.80;;;5.70;80.00;;;;;;5008209;28;20080;-65
2021/03/12 03:21:57;;;;;;;4.43;0.80;;;5.80;80.00;;;;;;5013146;28;20098;-65
2021/03/12 03:24:24;;;;;;;5.28;1.02;;;5.80;79.90;;;;;;5012810;28;20061;-65
2021/03/12 03:26:50;;;;;;;3.40;1.27;;;5.80;79.80;;;;;;5013273;28;20482;-65
2021/03/12 03:29:15;;;;;;;5.90;1.30;;;5.80;79.70;;;;;;5001488;28;20038;-65
2021/03/12 03:31:41;;;;;;;2.72;1.00;;;5.80;79.70;;;;;;4995527;28;20030;-65
2021/03/12 03:34:07;;;;;;;4.28;1.02;;;5.90;79.70;;;;;;5012647;28;20030;-65
2021/03/12 03:36:34;;;;;;;4.28;1.17;;;5.90;79.60;;;;;;5012565;28;20033;-65
2021/03/12 03:39:00;;;;;;;6.40;1.23;;;5.90;79.80;;;;;;5011649;28;20033;-65
2021/03/12 03:41:26;;;;;;;7.85;1.25;;;5.90;79.80;;;;;;5009175;28;20443;-65
2021/03/12 03:43:54;;;;;;;4.35;1.20;;;5.90;79.90;;;;;;5007381;28;20459;-65
2021/03/12 03:46:21;;;;;;;2.25;0.88;;;5.90;80.20;;;;;;5013439;28;20030;-65
2021/03/12 03:48:48;;;;;;;5.32;1.05;;;5.90;80.70;;;;;;5012141;28;20085;-65
2021/03/12 03:51:15;;;;;;;3.42;1.23;;;5.80;80.10;;;;;;5012733;28;20470;-65
2021/03/12 03:53:41;;;;;;;2.97;1.17;;;5.80;80.20;;;;;;5003947;28;20670;-65
2021/03/12 03:56:10;;;;;;;5.68;0.88;;;5.80;80.30;;;;;;5003003;28;20022;-65
2021/03/12 03:58:38;;;;;;;3.28;1.00;;;5.80;80.40;;;;;;4998991;28;20026;-66
2021/03/12 04:01:06;;;;;;;2.60;0.80;;;5.60;80.00;;;;;;5012561;28;20479;-65
2021/03/12 04:03:33;;;;;;;1.75;0.95;;;5.50;80.00;;;;;;5006008;28;20113;-65
2021/03/12 04:05:59;;;;;;;2.97;0.90;;;5.40;80.20;;;;;;5006811;28;20033;-65
2021/03/12 04:08:25;;;;;;;3.65;1.10;;;5.40;80.50;;;;;;5012166;28;20044;-65
2021/03/12 04:10:55;;;;;;;4.60;1.30;;;5.30;80.60;;;;;;5000840;28;20030;-65
2021/03/12 04:13:21;;;;;;;7.50;1.10;;;5.30;81.40;;;;;;5004176;28;20053;-65
2021/03/12 04:15:47;;;;;;;2.25;1.25;;;5.20;81.30;;;;;;5002457;28;20041;-65
2021/03/12 04:18:14;;;;;;;2.13;0.88;;;5.10;81.30;;;;;;5007716;28;20026;-65
2021/03/12 04:20:41;;;;;;;2.33;1.20;;;5.10;81.70;;;;;;5008590;28;20033;-65
2021/03/12 04:23:07;;;;;;;2.88;1.05;;;5.10;81.50;;;;;;5010086;28;20032;-66
2021/03/12 04:25:33;;;;;;;4.25;1.02;;;5.00;81.50;;;;;;4992686;28;20435;-65
2021/03/12 04:28:01;;;;;;;2.95;0.90;;;5.00;81.40;;;;;;5010529;28;20026;-65
2021/03/12 04:30:27;;;;;;;6.45;1.00;;;5.00;81.40;;;;;;5004841;28;20033;-65
2021/03/12 04:32:53;;;;;;;6.78;1.40;;;5.00;81.30;;;;;;5011123;28;20029;-65
2021/03/12 04:35:19;;;;;;;2.33;0.98;;;5.00;81.30;;;;;;5007855;28;20026;-65
2021/03/12 04:37:46;;;;;;;5.32;1.17;;;5.00;81.20;;;;;;5003151;28;20033;-65
2021/03/12 04:40:12;;;;;;;3.70;0.90;;;5.00;81.20;;;;;;5011209;28;20034;-65
2021/03/12 04:42:38;;;;;;;4.28;0.95;;;5.00;81.10;;;;;;5010460;28;20068;-65
2021/03/12 04:45:06;;;;;;;3.67;0.95;;;5.00;81.00;;;;;;5010827;28;20489;-65
2021/03/12 04:47:33;;;;;;;5.15;1.05;;;5.00;80.90;;;;;;5011799;28;20534;-65
2021/03/12 04:50:01;;;;;;;3.40;0.93;;;5.00;81.00;;;;;;5011903;28;20109;-65
2021/03/12 04:52:26;;;;;;;3.72;1.13;;;5.00;81.00;;;;;;5011799;28;20055;-65
2021/03/12 04:54:53;;;;;;;2.15;1.20;;;5.00;81.00;;;;;;5002589;28;20113;-65
2021/03/12 04:57:19;;;;;;;2.80;1.05;;;5.00;81.00;;;;;;5008615;28;20053;-65
2021/03/12 04:59:45;;;;;;;5.88;1.17;;;5.00;80.90;;;;;;5005979;28;20026;-65
2021/03/12 05:02:12;;;;;;;4.85;1.10;;;5.00;80.90;;;;;;5010721;28;20037;-65
2021/03/12 05:04:40;;;;;;;4.82;1.20;;;5.10;80.90;;;;;;5009173;28;20056;-65
2021/03/12 05:07:06;;;;;;;3.75;1.00;;;5.10;80.90;;;;;;5003872;28;20112;-65
2021/03/12 05:09:32;;;;;;;2.80;1.27;;;5.10;80.80;;;;;;5011256;28;20125;-65
2021/03/12 05:11:58;;;;;;;2.83;1.25;;;5.20;80.80;;;;;;5003907;28;20022;-65
2021/03/12 05:14:24;;;;;;;2.75;1.13;;;5.20;80.60;;;;;;4995902;28;20065;-65
2021/03/12 05:16:49;;;;;;;7.88;1.25;;;5.20;80.60;;;;;;5010399;28;20038;-65
2021/03/12 05:19:15;;;;;;;3.35;0.90;;;5.20;80.50;;;;;;5005182;28;20033;-65
2021/03/12 05:21:40;;;;;;;5.88;1.15;;;5.30;80.40;;;;;;5010467;28;20037;-65
2021/03/12 05:24:07;;;;;;;4.28;1.02;;;5.30;80.40;;;;;;5010529;28;20034;-65
2021/03/12 05:26:32;;;;;;;3.92;1.40;;;5.30;80.40;;;;;;5010282;28;20037;-65
2021/03/12 05:28:58;;;;;;;2.63;1.30;;;5.40;80.20;;;;;;5008236;28;20041;-65
2021/03/12 05:31:25;;;;;;;4.85;1.08;;;5.30;79.80;;;;;;5028773;23;20366;-67
2021/03/12 05:33:54;;;;;;;5.78;1.58;;;5.40;79.60;;;;;;5042984;28;20029;-67
2021/03/12 05:36:23;;;;;;;5.22;1.42;;;5.40;79.10;;;;;;5045418;28;20485;-71
2021/03/12 05:38:49;;;;;;;5.97;1.38;;;5.40;79.10;;;;;;5044327;28;20148;-68
2021/03/12 05:41:17;;;;;;;5.43;1.13;;;5.40;78.60;;;;;;5026186;28;20450;-68
2021/03/12 05:43:43;;;;;;;7.25;1.60;;;5.50;78.50;;;;;;5025071;28;20048;-68
2021/03/12 05:46:10;;;;;;;9.20;1.50;;;5.50;78.30;;;;;;5010470;28;20080;-68
2021/03/12 05:48:36;;;;;;;7.18;1.50;;;5.50;78.30;;;;;;5012244;28;20033;-68
2021/03/12 05:51:02;;;;;;;12.05;1.20;;;5.50;77.80;;;;;;5030782;28;20021;-67
2021/03/12 05:53:29;;;;;;;6.35;1.60;;;5.50;77.60;;;;;;5019545;28;20022;-68
2021/03/12 05:55:55;;;;;;;5.75;1.20;;;5.50;77.70;;;;;;5029178;28;20026;-68
2021/03/12 05:58:22;;;;;;;6.03;1.30;;;5.50;77.50;;;;;;5034317;28;20025;-67
2021/03/12 06:00:47;;;;;;;8.57;1.90;;;5.60;77.60;;;;;;5026901;28;20022;-67
2021/03/12 06:03:14;;;;;;;10.82;1.73;;;5.60;77.50;;;;;;5029769;28;20048;-67
2021/03/12 06:05:42;;;;;;;9.68;1.73;;;5.60;77.40;;;;;;5025956;28;20025;-67
2021/03/12 06:08:08;;;;;;;5.30;1.05;;;5.60;76.90;;;;;;5033183;28;20026;-68
2021/03/12 06:10:33;;;;;;;4.18;0.80;;;5.60;76.80;;;;;;5033054;28;20029;-67
2021/03/12 06:12:59;;;;;;;7.43;1.52;;;5.60;76.60;;;;;;5024976;28;20018;-68
2021/03/12 06:15:39;;;;;;;7.20;1.60;;;5.60;76.60;;;;;;5028772;28;20034;-68
2021/03/12 06:18:21;;;;;;;7.18;1.20;;;5.60;76.40;;;;;;5029075;28;20096;-67
2021/03/12 06:20:48;;;;;;;5.65;1.60;;;5.60;76.60;;;;;;5026946;28;20108;-67
2021/03/12 06:23:40;;;;;;;7.57;1.13;;;5.60;76.60;;;;;;5028975;28;20397;-67
2021/03/12 06:26:06;;;;;;;6.70;1.63;;;5.60;76.40;;;;;;5016508;28;20028;-67
2021/03/12 06:28:32;;;;;;;5.65;1.17;;;5.60;76.30;;;;;;5028123;28;20025;-67
2021/03/12 06:30:58;;;;;;;8.07;1.38;;;5.60;76.00;;;;;;5030143;28;20420;-69
2021/03/12 06:33:28;;;;;;;9.50;1.65;;;5.60;76.00;;;;;;5024431;28;20040;-67
2021/03/12 06:35:54;;;;;;;4.78;1.33;;;5.70;75.90;;;;;;5032792;28;20108;-66
2021/03/12 06:38:20;;;;;;;7.43;1.30;;;5.70;75.80;;;;;;5025365;28;20017;-67
2021/03/12 06:40:46;;;;;;;3.70;1.20;;;5.70;75.80;;;;;;5032953;28;20033;-67
2021/03/12 06:43:15;;;;;;;4.70;1.90;;;5.70;75.60;;;;;;5033079;28;20497;-67
2021/03/12 06:45:41;;;;;;;6.43;1.50;;;5.70;75.70;;;;;;5032775;28;20111;-67
2021/03/12 06:48:32;;;;;;;5.03;1.13;;;5.80;75.60;;;;;;5032971;28;20845;-67
2021/03/12 06:51:02;;;;;;;7.43;1.20;;;5.80;75.60;;;;;;5032966;28;20036;-70
2021/03/12 06:53:38;;;;;;;7.60;1.17;;;5.80;75.50;;;;;;5032710;28;20574;-68
2021/03/12 06:56:09;;;;;;;6.75;1.10;;;5.80;75.60;;;;;;5025694;28;20393;-67
2021/03/12 06:58:35;;;;;;;3.35;0.95;;;5.80;75.50;;;;;;5033069;28;20025;-67
2021/03/12 07:01:17;;;;;;;5.35;1.00;;;5.80;75.20;;;;;;5032693;28;20034;-67
2021/03/12 07:03:42;;;;;;;4.15;1.00;;;5.80;75.50;;;;;;5033239;28;20545;-67
2021/03/12 07:06:19;;;;;;;3.88;0.88;;;5.80;75.40;;;;;;5029434;28;20149;-67
2021/03/12 07:08:47;;;;;;;4.30;0.90;;;5.80;75.20;;;;;;5025885;28;20052;-66
2021/03/12 07:11:27;;;;;;;4.72;1.20;;;5.90;75.40;;;;;;5021874;28;20094;-68
2021/03/12 07:13:55;;;;;;;5.25;0.98;;;5.90;75.30;;;;;;5037749;28;20132;-67
2021/03/12 07:16:21;;;;;;;4.03;0.93;;;6.10;74.90;;;;;;5038807;28;20112;-67
2021/03/12 07:18:48;;;;;;;4.82;1.27;;;6.30;74.50;;;;;;5036013;28;20029;-66
2021/03/12 07:21:16;;;;;;;3.55;1.08;;;6.50;74.10;;;;;;5027527;28;20033;-67
2021/03/12 07:23:57;;;;;;;3.85;1.48;;;6.50;73.80;;;;;;5031101;28;20116;-67
2021/03/12 07:26:22;;;;;;;14.10;1.60;;;6.50;74.10;;;;;;5028744;28;20044;-67
2021/03/12 07:28:56;;;;;;;5.07;1.00;;;6.50;73.90;;;;;;5028880;28;20396;-67
2021/03/12 07:31:25;;;;;;;5.28;0.98;;;6.50;73.80;;;;;;5032037;28;20052;-66
2021/03/12 07:33:53;;;;;;;3.20;0.90;;;6.50;74.00;;;;;;5031144;28;20021;-67
2021/03/12 07:36:27;;;;;;;5.63;1.65;;;6.50;74.00;;;;;;5027977;28;20032;-67
2021/03/12 07:39:01;;;;;;;6.35;1.70;;;6.50;74.40;;;;;;5032416;28;20051;-67
2021/03/12 07:41:26;;;;;;;5.47;1.33;;;6.50;74.20;;;;;;5023272;28;20171;-66
2021/03/12 07:43:53;;;;;;;6.35;1.65;;;6.50;73.90;;;;;;5039566;28;20119;-66
2021/03/12 07:46:19;;;;;;;9.80;1.40;;;6.40;74.00;;;;;;5046665;28;20120;-67
2021/03/12 07:48:45;;;;;;;6.00;1.20;;;6.40;74.10;;;;;;5032402;28;20021;-66
2021/03/12 07:51:13;;;;;;;3.53;0.98;;;6.30;74.30;;;;;;5035388;28;20033;-66
2021/03/12 07:53:56;;;;;;;3.28;1.20;;;6.30;74.40;;;;;;5039331;28;20021;-67
2021/03/12 07:56:43;;;;;;;3.28;1.02;;;6.20;74.40;;;;;;5035964;28;20044;-69
2021/03/12 07:59:09;;;;;;;3.05;1.00;;;6.20;74.30;;;;;;5034330;28;20108;-67
2021/03/12 08:01:47;;;;;;;4.80;1.00;;;6.00;74.40;;;;;;5033883;28;20091;-67
2021/03/12 08:04:33;;;;;;;3.00;0.90;;;5.90;75.20;;;;;;5033491;28;20017;-67
2021/03/12 08:07:19;;;;;;;12.40;3.03;;;5.80;75.70;;;;;;5033558;28;20505;-67
2021/03/12 08:09:52;;;;;;;11.35;2.58;;;5.70;76.00;;;;;;5002613;28;20413;-67
2021/03/12 08:12:29;;;;;;;7.07;3.25;;;5.70;76.10;;;;;;5040317;28;20025;-66
2021/03/12 08:15:15;;;;;;;7.75;1.20;;;5.80;76.30;;;;;;5062125;28;20025;-66
2021/03/12 08:17:45;;;;;;;5.90;1.30;;;5.90;76.20;;;;;;5037029;28;20511;-67
2021/03/12 08:20:27;;;;;;;3.70;0.90;;;6.00;76.00;;;;;;5035817;28;20370;-66
2021/03/12 08:22:54;;;;;;;5.70;1.10;;;6.00;75.80;;;;;;5034805;28;20131;-66
2021/03/12 08:25:32;;;;;;;3.78;1.08;;;6.10;75.70;;;;;;5038971;28;20034;-66
2021/03/12 08:28:07;;;;;;;10.02;1.63;;;6.20;75.40;;;;;;5034802;28;20025;-66
2021/03/12 08:30:35;;;;;;;8.68;1.40;;;6.20;75.00;;;;;;5025593;28;20402;-67
2021/03/12 08:33:06;;;;;;;2.42;0.90;;;6.40;74.80;;;;;;5031467;28;20020;-67
2021/03/12 08:35:35;;;;;;;4.38;1.15;;;6.40;74.30;;;;;;5030892;28;20100;-67
2021/03/12 08:38:25;;;;;;;6.95;1.63;;;6.50;74.50;;;;;;5031618;28;20051;-67
2021/03/12 08:41:01;;;;;;;9.38;2.60;;;6.50;74.30;;;;;;5035971;28;20044;-66
2021/03/12 08:43:29;;;;;;;9.18;2.28;;;6.60;74.20;;;;;;5030563;28;20017;-66
2021/03/12 08:46:10;;;;;;;6.60;2.20;;;6.60;74.20;;;;;;5029052;28;20075;-66
2021/03/12 08:48:37;;;;;;;3.30;1.25;;;6.70;74.20;;;;;;5034672;28;20386;-66
2021/03/12 08:51:05;;;;;;;6.70;1.48;;;6.80;74.00;;;;;;5029552;28;20124;-66
2021/03/12 08:53:36;;;;;;;4.05;1.00;;;7.20;73.00;;;;;;5034999;28;20090;-67
2021/03/12 08:56:04;;;;;;;3.05;1.10;;;7.70;72.00;;;;;;5034315;28;20366;-67
2021/03/12 08:58:32;;;;;;;4.25;1.05;;;8.10;71.30;;;;;;5052900;28;20025;-66
2021/03/12 09:01:10;;;;;;;3.15;0.95;;;8.40;70.00;;;;;;5031192;28;20025;-66
2021/03/12 09:03:37;;;;;;;4.03;0.95;;;8.30;70.50;;;;;;5030435;28;20244;-67
2021/03/12 09:06:03;;;;;;;5.68;1.38;;;8.50;69.70;;;;;;5034268;28;20095;-67
2021/03/12 09:08:29;;;;;;;8.88;1.38;;;8.60;69.10;;;;;;5034633;28;20538;-67
2021/03/12 09:10:55;;;;;;;8.88;2.40;;;8.80;68.40;;;;;;5028744;28;20036;-66
2021/03/12 09:13:23;;;;;;;4.85;1.30;;;8.80;68.60;;;;;;5034186;28;20402;-66
2021/03/12 09:15:50;;;;;;;3.53;1.05;;;8.80;68.40;;;;;;5034443;28;20040;-66
2021/03/12 09:18:18;;;;;;;6.10;0.85;;;8.70;68.00;;;;;;5034112;28;20028;-66
2021/03/12 09:20:52;;;;;;;3.42;1.00;;;8.60;68.00;;;;;;5034643;28;20052;-66
2021/03/12 09:23:31;;;;;;;3.00;1.05;;;8.50;67.90;;;;;;5033884;28;20476;-66
2021/03/12 09:25:57;;;;;;;5.43;1.52;;;8.30;68.10;;;;;;5025585;28;20019;-66
2021/03/12 09:28:28;;;;;;;5.53;1.52;;;8.10;67.70;;;;;;5034141;28;20021;-67
2021/03/12 09:30:53;;;;;;;4.63;1.00;;;8.10;67.90;;;;;;5034242;28;20025;-65
2021/03/12 09:33:30;;;;;;;3.50;1.02;;;7.90;68.10;;;;;;5033330;28;20485;-66
2021/03/12 09:35:56;;;;;;;4.50;0.88;;;7.80;69.10;;;;;;5035753;28;20021;-67
2021/03/12 09:38:38;;;;;;;5.97;1.27;;;7.80;69.50;;;;;;5038781;28;20021;-66
2021/03/12 09:41:31;;;;;;;3.17;1.10;;;7.80;68.90;;;;;;5029291;28;20017;-66
2021/03/12 09:44:11;;;;;;;5.45;1.15;;;7.80;69.10;;;;;;5026709;28;20036;-67
2021/03/12 09:46:38;;;;;;;4.90;1.35;;;7.70;69.00;;;;;;5030889;28;20030;-66
2021/03/12 09:49:16;;;;;;;3.45;1.50;;;7.70;68.50;;;;;;5023228;28;20040;-67
2021/03/12 09:51:44;;;;;;;3.80;0.95;;;7.70;68.90;;;;;;5014253;28;20025;-67
2021/03/12 09:54:12;;;;;;;2.60;1.08;;;7.70;69.10;;;;;;5018696;28;20025;-67
2021/03/12 09:56:51;;;;;;;5.57;1.40;;;7.70;69.50;;;;;;5033608;28;20485;-66
2021/03/12 09:59:19;;;;;;;5.47;1.35;;;7.60;70.00;;;;;;5033371;28;20032;-67
2021/03/12 10:01:48;;;;;;;3.92;1.00;;;7.50;70.70;;;;;;5033596;28;20040;-66
2021/03/12 10:04:24;;;;;;;3.03;1.23;;;7.40;71.10;;;;;;5033082;28;20520;-66
2021/03/12 10:07:19;;;;;;;5.03;0.85;;;7.30;71.10;;;;;;5051798;28;20025;-66
2021/03/12 10:09:47;;;;;;;3.65;1.10;;;7.30;71.60;;;;;;5016728;28;20120;-66
2021/03/12 10:12:21;;;;;;;3.45;1.10;;;7.20;71.50;;;;;;5051242;28;20021;-66
2021/03/12 10:14:52;;;;;;;3.70;1.02;;;7.20;71.90;;;;;;5050590;28;20078;-67
2021/03/12 10:17:20;;;;;;;4.35;1.08;;;7.20;72.00;;;;;;5033697;28;20066;-66
2021/03/12 10:19:50;;;;;;;2.90;0.90;;;7.40;71.80;;;;;;5033722;28;20116;-66
2021/03/12 10:22:16;;;;;;;4.13;1.30;;;7.60;71.70;;;;;;5033524;28;20079;-67
2021/03/12 10:24:48;;;;;;;3.58;1.02;;;7.90;71.40;;;;;;5032167;28;20033;-68
2021/03/12 10:27:19;;;;;;;5.35;1.20;;;8.10;71.20;;;;;;5033643;28;20048;-67
2021/03/12 10:29:44;;;;;;;6.43;0.98;;;8.20;69.30;;;;;;5029909;28;20030;-67
2021/03/12 10:32:11;;;;;;;7.35;1.17;;;8.30;68.80;;;;;;5013670;28;20100;-67
2021/03/12 10:34:46;;;;;;;3.35;1.10;;;8.30;69.20;;;;;;5012996;28;20022;-67
2021/03/12 10:37:16;;;;;;;4.97;1.10;;;8.40;68.60;;;;;;5034141;28;20022;-67
2021/03/12 10:39:43;;;;;;;3.72;0.85;;;8.70;68.40;;;;;;5030421;28;20036;-67
2021/03/12 10:42:09;;;;;;;6.35;1.10;;;8.90;67.10;;;;;;5051104;28;20029;-67
2021/03/12 10:44:54;;;;;;;4.18;1.10;;;9.00;66.70;;;;;;5032584;28;20413;-67
2021/03/12 10:47:20;;;;;;;6.78;1.33;;;9.20;66.20;;;;;;5025931;28;20021;-67
2021/03/12 10:49:46;;;;;;;5.78;1.30;;;9.40;66.20;;;;;;5017553;28;20473;-67
2021/03/12 10:52:31;;;;;;;2.45;0.80;;;9.50;65.20;;;;;;5017374;28;20116;-66
2021/03/12 10:55:08;;;;;;;3.83;1.00;;;9.70;64.40;;;;;;5016777;28;20021;-68
2021/03/12 10:57:40;;;;;;;5.70;1.13;;;9.70;62.90;;;;;;5017396;28;20021;-66
2021/03/12 11:00:15;;;;;;;3.10;1.05;;;9.80;64.00;;;;;;5017525;28;20026;-67
2021/03/12 11:02:41;;;;;;;6.75;1.30;;;9.90;63.40;;;;;;5017481;28;20120;-67
2021/03/12 11:05:08;;;;;;;5.47;1.02;;;10.10;62.00;;;;;;5025208;28;20029;-67
2021/03/12 11:07:33;;;;;;;5.35;0.80;;;10.20;60.30;;;;;;5021727;28;20029;-67
2021/03/12 11:09:59;;;;;;;6.10;1.05;;;10.20;60.50;;;;;;5036991;28;20021;-66
2021/03/12 11:12:33;;;;;;;6.68;1.45;;;10.20;59.40;;;;;;5053552;28;20099;-66
2021/03/12 11:14:59;;;;;;;0.98;0.73;;;10.20;59.40;;;;;;5028421;28;20025;-66
2021/03/12 11:17:25;;;;;;;6.57;1.20;;;10.20;59.50;;;;;;5036092;28;20052;-68
2021/03/12 11:19:50;;;;;;;3.58;1.13;;;10.30;59.00;;;;;;5032581;28;20396;-68
2021/03/12 11:22:16;;;;;;;5.32;1.00;;;10.30;59.10;;;;;;5018895;28;20099;-67
2021/03/12 11:24:41;;;;;;;1.85;0.70;;;10.50;58.40;;;;;;5035759;28;20481;-67
2021/03/12 11:27:07;;;;;;;3.28;0.77;;;10.70;57.50;;;;;;5032358;28;20028;-67
2021/03/12 11:29:34;;;;;;;3.03;0.75;;;10.80;57.50;;;;;;5032172;28;20021;-66
2021/03/12 11:32:00;;;;;;;3.95;1.38;;;10.80;56.80;;;;;;5036043;28;20033;-67
2021/03/12 11:34:25;;;;;;;2.92;0.90;;;10.90;55.30;;;;;;5031464;28;20055;-68
2021/03/12 11:36:52;;;;;;;2.05;0.88;;;10.90;52.30;;;;;;5017472;28;20111;-68
2021/03/12 11:39:17;;;;;;;4.53;0.90;;;11.00;52.80;;;;;;5041713;28;20052;-66
2021/03/12 11:41:43;;;;;;;2.60;0.70;;;11.10;52.20;;;;;;5033668;28;20607;-66
2021/03/12 11:44:09;;;;;;;3.13;0.80;;;11.10;50.80;;;;;;5035240;28;20039;-68
2021/03/12 11:46:35;;;;;;;2.22;0.88;;;11.20;51.00;;;;;;5019109;28;20108;-66
2021/03/12 11:49:00;;;;;;;2.70;0.75;;;11.20;50.70;;;;;;5037389;28;20035;-67
2021/03/12 11:51:26;;;;;;;2.33;0.90;;;11.30;51.70;;;;;;5035505;28;20217;-68
2021/03/12 11:53:51;;;;;;;1.83;0.70;;;11.40;52.00;;;;;;5035590;28;20067;-68
2021/03/12 11:56:17;;;;;;;3.58;0.98;;;11.50;51.50;;;;;;5035584;28;20492;-68
2021/03/12 11:58:43;;;;;;;2.38;0.77;;;11.70;51.00;;;;;;5035391;28;20024;-67
2021/03/12 12:01:08;;;;;;;3.88;0.90;;;11.70;51.30;;;;;;5036257;28;20033;-67
2021/03/12 12:03:34;;;;;;;3.75;1.00;;;11.80;49.80;;;;;;5035907;28;20025;-67
2021/03/12 12:05:59;;;;;;;3.05;0.77;;;11.90;48.50;;;;;;5036928;28;20082;-67
2021/03/12 12:08:25;;;;;;;1.73;0.60;;;11.90;48.50;;;;;;5036348;28;20033;-67
2021/03/12 12:10:51;;;;;;;2.17;0.90;;;11.90;48.10;;;;;;5025508;28;20746;-67
2021/03/12 12:13:16;;;;;;;1.75;0.73;;;11.90;48.20;;;;;;5034867;28;20496;-67
2021/03/12 12:15:42;;;;;;;3.10;0.80;;;11.90;48.00;;;;;;5036758;28;20111;-67
2021/03/12 12:20:42;;;;;;;3.83;1.27;;;12.10;49.20;;;;;;5058651;28;20041;-63
2021/03/12 12:23:08;;;;;;;4.25;0.73;;;12.30;48.60;;;;;;5035191;28;20469;-64
2021/03/12 12:25:33;;;;;;;2.35;0.80;;;12.50;48.70;;;;;;5045036;28;20033;-65
2021/03/12 12:27:59;;;;;;;3.75;0.98;;;12.70;48.00;;;;;;5060130;28;20032;-64
2021/03/12 12:30:25;;;;;;;1.50;0.82;;;12.90;48.60;;;;;;5042819;28;20035;-64
2021/03/12 12:32:50;;;;;;;2.28;0.80;;;13.20;49.40;;;;;;5038743;28;20081;-65
2021/03/12 12:35:16;;;;;;;2.15;0.65;;;13.40;48.30;;;;;;5052548;28;20029;-64
2021/03/12 12:37:42;;;;;;;2.70;1.00;;;13.50;46.70;;;;;;5036218;28;20104;-66
2021/03/12 12:40:08;;;;;;;1.42;0.50;;;13.30;46.90;;;;;;5053203;28;20522;-65
2021/03/12 12:42:34;;;;;;;2.20;0.80;;;13.10;47.70;;;;;;5072231;28;20100;-65
2021/03/12 12:45:00;;;;;;;2.95;0.68;;;13.10;46.90;;;;;;5038572;28;20095;-65
2021/03/12 12:47:25;;;;;;;2.33;0.55;;;12.90;47.40;;;;;;5045637;28;20029;-65
2021/03/12 12:49:51;;;;;;;3.10;0.60;;;12.70;47.30;;;;;;5042045;28;20033;-66
2021/03/12 12:52:16;;;;;;;2.97;0.90;;;12.50;48.30;;;;;;5048522;28;20063;-65
2021/03/12 12:54:42;;;;;;;2.38;0.80;;;12.40;48.00;;;;;;5053950;28;20028;-65
2021/03/12 12:57:08;;;;;;;2.17;0.80;;;12.50;48.00;;;;;;5053463;28;20037;-64
2021/03/12 12:59:34;;;;;;;2.95;0.73;;;12.50;48.20;;;;;;5042130;28;20021;-66
2021/03/12 13:01:59;;;;;;;2.35;0.65;;;12.60;47.00;;;;;;5040227;28;20094;-65
2021/03/12 13:04:25;;;;;;;3.45;0.82;;;12.60;47.30;;;;;;5033932;28;20135;-65
2021/03/12 13:06:51;;;;;;;5.30;0.98;;;12.80;47.80;;;;;;5036492;28;20025;-65